sensor_id;sensor_type;location;lat;lon;timestamp;pressure;altitude;pressure_sealevel;temperature;humidity
2675;BME280;1347;42.122;24.746;2023-07-13T00:01:45;99568.78;;;27.23;72.00
2675;BME280;1347;42.122;24.746;2023-07-13T00:04:15;99572.56;;;27.20;72.58
2675;BME280;1347;42.122;24.746;2023-07-13T00:06:43;99569.34;;;27.12;72.73
2675;BME280;1347;42.122;24.746;2023-07-13T00:09:10;99563.06;;;27.17;73.24
2675;BME280;1347;42.122;24.746;2023-07-13T00:11:37;99566.81;;;27.14;72.80
2675;BME280;1347;42.122;24.746;2023-07-13T00:14:04;99570.88;;;27.13;73.57
2675;BME280;1347;42.122;24.746;2023-07-13T00:16:33;99568.56;;;27.11;72.93
2675;BME280;1347;42.122;24.746;2023-07-13T00:19:01;99567.38;;;27.03;72.78
2675;BME280;1347;42.122;24.746;2023-07-13T00:21:28;99559.88;;;27.00;73.69
2675;BME280;1347;42.122;24.746;2023-07-13T00:23:55;99559.16;;;26.91;73.55
2675;BME280;1347;42.122;24.746;2023-07-13T00:26:23;99555.13;;;26.92;73.33
2675;BME280;1347;42.122;24.746;2023-07-13T00:28:50;99551.56;;;26.82;74.53
2675;BME280;1347;42.122;24.746;2023-07-13T00:31:17;99548.34;;;26.74;74.66
2675;BME280;1347;42.122;24.746;2023-07-13T00:33:44;99549.47;;;26.68;74.37
2675;BME280;1347;42.122;24.746;2023-07-13T00:36:12;99545.94;;;26.58;75.44
2675;BME280;1347;42.122;24.746;2023-07-13T00:38:40;99550.31;;;26.59;75.29
2675;BME280;1347;42.122;24.746;2023-07-13T00:41:07;99548.47;;;26.56;75.54
2675;BME280;1347;42.122;24.746;2023-07-13T00:43:34;99535.94;;;26.57;75.31
2675;BME280;1347;42.122;24.746;2023-07-13T00:46:15;99533.78;;;26.52;75.81
2675;BME280;1347;42.122;24.746;2023-07-13T00:48:44;99541.44;;;26.52;76.23
2675;BME280;1347;42.122;24.746;2023-07-13T00:51:16;99547.13;;;26.43;77.17
2675;BME280;1347;42.122;24.746;2023-07-13T00:53:45;99549.63;;;26.41;75.28
2675;BME280;1347;42.122;24.746;2023-07-13T00:56:12;99551.34;;;26.38;75.68
2675;BME280;1347;42.122;24.746;2023-07-13T00:58:39;99548.38;;;26.42;74.89
2675;BME280;1347;42.122;24.746;2023-07-13T01:01:06;99550.97;;;26.21;75.77
2675;BME280;1347;42.122;24.746;2023-07-13T01:03:34;99544.13;;;26.13;75.83
2675;BME280;1347;42.122;24.746;2023-07-13T01:06:03;99542.78;;;25.99;76.73
2675;BME280;1347;42.122;24.746;2023-07-13T01:08:31;99535.00;;;25.85;77.52
2675;BME280;1347;42.122;24.746;2023-07-13T01:10:58;99529.88;;;25.84;78.08
2675;BME280;1347;42.122;24.746;2023-07-13T01:13:25;99524.47;;;25.71;78.34
2675;BME280;1347;42.122;24.746;2023-07-13T01:15:55;99525.88;;;25.57;78.67
2675;BME280;1347;42.122;24.746;2023-07-13T01:18:25;99526.19;;;25.50;79.66
2675;BME280;1347;42.122;24.746;2023-07-13T01:20:55;99525.28;;;25.53;78.99
2675;BME280;1347;42.122;24.746;2023-07-13T01:23:23;99525.88;;;25.57;79.43
2675;BME280;1347;42.122;24.746;2023-07-13T01:25:51;99531.00;;;25.59;78.79
2675;BME280;1347;42.122;24.746;2023-07-13T01:28:18;99530.09;;;25.62;78.36
2675;BME280;1347;42.122;24.746;2023-07-13T01:30:46;99528.09;;;25.62;78.40
2675;BME280;1347;42.122;24.746;2023-07-13T01:33:14;99533.69;;;25.62;78.89
2675;BME280;1347;42.122;24.746;2023-07-13T01:35:42;99528.53;;;25.61;79.41
2675;BME280;1347;42.122;24.746;2023-07-13T01:38:13;99526.97;;;25.69;78.37
2675;BME280;1347;42.122;24.746;2023-07-13T01:40:41;99530.88;;;25.62;78.99
2675;BME280;1347;42.122;24.746;2023-07-13T01:43:08;99527.75;;;25.70;78.78
2675;BME280;1347;42.122;24.746;2023-07-13T01:45:35;99530.53;;;25.70;77.74
2675;BME280;1347;42.122;24.746;2023-07-13T01:48:02;99536.59;;;25.77;78.04
2675;BME280;1347;42.122;24.746;2023-07-13T01:50:29;99531.13;;;25.83;77.89
2675;BME280;1347;42.122;24.746;2023-07-13T01:52:56;99532.53;;;25.78;78.37
2675;BME280;1347;42.122;24.746;2023-07-13T01:55:24;99530.38;;;25.73;79.08
2675;BME280;1347;42.122;24.746;2023-07-13T01:57:51;99534.75;;;25.65;78.01
2675;BME280;1347;42.122;24.746;2023-07-13T02:00:18;99543.03;;;25.69;78.07
2675;BME280;1347;42.122;24.746;2023-07-13T02:02:45;99542.25;;;25.68;78.17
2675;BME280;1347;42.122;24.746;2023-07-13T02:05:13;99547.56;;;25.66;78.02
2675;BME280;1347;42.122;24.746;2023-07-13T02:07:40;99552.88;;;25.64;78.67
2675;BME280;1347;42.122;24.746;2023-07-13T02:10:08;99548.50;;;25.54;78.21
2675;BME280;1347;42.122;24.746;2023-07-13T02:12:37;99544.59;;;25.51;78.95
2675;BME280;1347;42.122;24.746;2023-07-13T02:15:05;99555.22;;;25.47;78.72
2675;BME280;1347;42.122;24.746;2023-07-13T02:17:32;99552.09;;;25.45;79.21
2675;BME280;1347;42.122;24.746;2023-07-13T02:19:59;99556.78;;;25.39;79.69
2675;BME280;1347;42.122;24.746;2023-07-13T02:22:26;99558.81;;;25.29;79.66
2675;BME280;1347;42.122;24.746;2023-07-13T02:24:53;99559.44;;;25.24;79.50
2675;BME280;1347;42.122;24.746;2023-07-13T02:27:19;99562.88;;;25.10;80.65
2675;BME280;1347;42.122;24.746;2023-07-13T02:29:48;99565.03;;;25.15;78.77
2675;BME280;1347;42.122;24.746;2023-07-13T02:32:16;99575.81;;;25.17;79.89
2675;BME280;1347;42.122;24.746;2023-07-13T02:34:43;99577.22;;;25.03;80.69
2675;BME280;1347;42.122;24.746;2023-07-13T02:37:10;99577.91;;;24.76;81.17
2675;BME280;1347;42.122;24.746;2023-07-13T02:39:37;99574.78;;;24.65;82.30
2675;BME280;1347;42.122;24.746;2023-07-13T02:42:05;99568.56;;;24.61;81.69
2675;BME280;1347;42.122;24.746;2023-07-13T02:44:32;99567.34;;;24.71;80.35
2675;BME280;1347;42.122;24.746;2023-07-13T02:47:00;99563.91;;;24.76;79.83
2675;BME280;1347;42.122;24.746;2023-07-13T02:49:27;99566.56;;;24.80;79.98
2675;BME280;1347;42.122;24.746;2023-07-13T02:51:53;99565.31;;;24.72;79.97
2675;BME280;1347;42.122;24.746;2023-07-13T02:54:20;99570.28;;;24.68;78.91
2675;BME280;1347;42.122;24.746;2023-07-13T02:56:47;99573.53;;;24.66;79.25
2675;BME280;1347;42.122;24.746;2023-07-13T02:59:14;99577.59;;;24.65;78.18
2675;BME280;1347;42.122;24.746;2023-07-13T03:01:41;99574.66;;;24.69;78.31
2675;BME280;1347;42.122;24.746;2023-07-13T03:04:09;99577.31;;;24.72;77.87
2675;BME280;1347;42.122;24.746;2023-07-13T03:06:37;99572.50;;;24.82;77.18
2675;BME280;1347;42.122;24.746;2023-07-13T03:09:04;99568.13;;;24.90;75.83
2675;BME280;1347;42.122;24.746;2023-07-13T03:11:31;99564.13;;;25.00;75.67
2675;BME280;1347;42.122;24.746;2023-07-13T03:13:58;99573.97;;;25.14;74.81
2675;BME280;1347;42.122;24.746;2023-07-13T03:16:25;99576.13;;;25.10;75.81
2675;BME280;1347;42.122;24.746;2023-07-13T03:18:52;99582.47;;;24.83;76.18
2675;BME280;1347;42.122;24.746;2023-07-13T03:21:20;99573.41;;;24.70;77.49
2675;BME280;1347;42.122;24.746;2023-07-13T03:23:47;99571.50;;;24.57;78.80
2675;BME280;1347;42.122;24.746;2023-07-13T03:26:16;99572.84;;;24.44;78.29
2675;BME280;1347;42.122;24.746;2023-07-13T03:28:44;99565.78;;;24.21;78.61
2675;BME280;1347;42.122;24.746;2023-07-13T03:31:13;99566.78;;;24.05;79.40
2675;BME280;1347;42.122;24.746;2023-07-13T03:33:40;99563.22;;;24.14;78.97
2675;BME280;1347;42.122;24.746;2023-07-13T03:36:09;99560.41;;;24.05;79.61
2675;BME280;1347;42.122;24.746;2023-07-13T03:38:37;99561.00;;;24.00;79.25
2675;BME280;1347;42.122;24.746;2023-07-13T03:41:04;99552.88;;;23.93;80.05
2675;BME280;1347;42.122;24.746;2023-07-13T03:43:31;99563.78;;;23.91;80.48
2675;BME280;1347;42.122;24.746;2023-07-13T03:45:58;99564.06;;;23.93;79.63
2675;BME280;1347;42.122;24.746;2023-07-13T03:48:25;99564.84;;;23.93;79.16
2675;BME280;1347;42.122;24.746;2023-07-13T03:50:51;99564.25;;;23.98;79.63
2675;BME280;1347;42.122;24.746;2023-07-13T03:53:18;99562.94;;;24.12;77.95
2675;BME280;1347;42.122;24.746;2023-07-13T03:55:47;99568.56;;;24.21;77.59
2675;BME280;1347;42.122;24.746;2023-07-13T03:58:31;99574.06;;;24.34;77.15
2675;BME280;1347;42.122;24.746;2023-07-13T04:00:59;99569.13;;;24.47;76.57
2675;BME280;1347;42.122;24.746;2023-07-13T04:03:26;99570.56;;;24.51;76.10
2675;BME280;1347;42.122;24.746;2023-07-13T04:05:54;99572.94;;;24.62;75.31
2675;BME280;1347;42.122;24.746;2023-07-13T04:08:26;99574.19;;;24.70;75.94
2675;BME280;1347;42.122;24.746;2023-07-13T04:10:55;99576.69;;;24.77;75.44
2675;BME280;1347;42.122;24.746;2023-07-13T04:13:22;99576.53;;;24.81;75.92
2675;BME280;1347;42.122;24.746;2023-07-13T04:15:49;99574.84;;;24.83;76.00
2675;BME280;1347;42.122;24.746;2023-07-13T04:18:16;99582.66;;;24.98;74.92
2675;BME280;1347;42.122;24.746;2023-07-13T04:20:43;99585.63;;;25.12;74.26
2675;BME280;1347;42.122;24.746;2023-07-13T04:23:10;99585.97;;;25.23;73.89
2675;BME280;1347;42.122;24.746;2023-07-13T04:25:37;99582.69;;;25.34;73.91
2675;BME280;1347;42.122;24.746;2023-07-13T04:28:06;99587.97;;;25.41;73.95
2675;BME280;1347;42.122;24.746;2023-07-13T04:30:33;99598.56;;;25.46;73.69
2675;BME280;1347;42.122;24.746;2023-07-13T04:33:00;99594.03;;;25.49;73.94
2675;BME280;1347;42.122;24.746;2023-07-13T04:35:26;99588.28;;;25.61;73.48
2675;BME280;1347;42.122;24.746;2023-07-13T04:37:53;99599.66;;;25.67;73.58
2675;BME280;1347;42.122;24.746;2023-07-13T04:40:20;99593.22;;;25.76;73.03
2675;BME280;1347;42.122;24.746;2023-07-13T04:42:49;99594.94;;;25.91;72.15
2675;BME280;1347;42.122;24.746;2023-07-13T04:45:18;99597.59;;;25.95;71.99
2675;BME280;1347;42.122;24.746;2023-07-13T04:47:45;99598.97;;;25.90;71.53
2675;BME280;1347;42.122;24.746;2023-07-13T04:50:13;99600.97;;;25.99;71.46
2675;BME280;1347;42.122;24.746;2023-07-13T04:52:46;99604.38;;;26.12;71.37
2675;BME280;1347;42.122;24.746;2023-07-13T04:55:13;99600.63;;;26.15;71.46
2675;BME280;1347;42.122;24.746;2023-07-13T04:57:40;99602.16;;;26.16;70.06
2675;BME280;1347;42.122;24.746;2023-07-13T05:00:08;99602.47;;;26.27;68.63
2675;BME280;1347;42.122;24.746;2023-07-13T05:02:38;99604.97;;;26.34;69.05
2675;BME280;1347;42.122;24.746;2023-07-13T05:05:06;99611.00;;;26.42;69.31
2675;BME280;1347;42.122;24.746;2023-07-13T05:07:33;99608.16;;;26.51;69.49
2675;BME280;1347;42.122;24.746;2023-07-13T05:10:00;99608.56;;;26.59;69.01
2675;BME280;1347;42.122;24.746;2023-07-13T05:12:27;99611.84;;;26.57;68.64
2675;BME280;1347;42.122;24.746;2023-07-13T05:14:54;99613.56;;;26.64;68.45
2675;BME280;1347;42.122;24.746;2023-07-13T05:17:20;99614.09;;;26.77;68.93
2675;BME280;1347;42.122;24.746;2023-07-13T05:19:49;99607.44;;;26.89;67.65
2675;BME280;1347;42.122;24.746;2023-07-13T05:22:15;99602.88;;;27.01;67.42
2675;BME280;1347;42.122;24.746;2023-07-13T05:24:42;99611.84;;;27.14;66.83
2675;BME280;1347;42.122;24.746;2023-07-13T05:27:09;99611.47;;;27.21;66.96
2675;BME280;1347;42.122;24.746;2023-07-13T05:29:36;99614.91;;;27.25;67.01
2675;BME280;1347;42.122;24.746;2023-07-13T05:32:04;99616.56;;;27.32;66.05
2675;BME280;1347;42.122;24.746;2023-07-13T05:34:31;99610.19;;;27.46;66.06
2675;BME280;1347;42.122;24.746;2023-07-13T05:36:59;99611.34;;;27.54;65.63
2675;BME280;1347;42.122;24.746;2023-07-13T05:39:26;99613.81;;;27.61;66.25
2675;BME280;1347;42.122;24.746;2023-07-13T05:41:53;99620.72;;;27.75;65.21
2675;BME280;1347;42.122;24.746;2023-07-13T05:44:20;99617.63;;;27.88;65.81
2675;BME280;1347;42.122;24.746;2023-07-13T05:46:47;99621.91;;;27.98;65.41
2675;BME280;1347;42.122;24.746;2023-07-13T05:49:14;99620.25;;;28.06;65.61
2675;BME280;1347;42.122;24.746;2023-07-13T05:51:41;99612.31;;;28.19;64.86
2675;BME280;1347;42.122;24.746;2023-07-13T05:54:09;99611.78;;;28.20;64.49
2675;BME280;1347;42.122;24.746;2023-07-13T05:56:36;99611.41;;;28.28;64.12
2675;BME280;1347;42.122;24.746;2023-07-13T05:59:03;99604.41;;;28.38;64.16
2675;BME280;1347;42.122;24.746;2023-07-13T06:01:30;99612.50;;;28.50;63.28
2675;BME280;1347;42.122;24.746;2023-07-13T06:03:57;99611.53;;;28.53;62.21
2675;BME280;1347;42.122;24.746;2023-07-13T06:06:25;99615.75;;;28.43;62.70
2675;BME280;1347;42.122;24.746;2023-07-13T06:08:52;99614.97;;;28.43;62.02
2675;BME280;1347;42.122;24.746;2023-07-13T06:11:22;99614.94;;;28.58;62.38
2675;BME280;1347;42.122;24.746;2023-07-13T06:13:49;99618.31;;;28.62;61.76
2675;BME280;1347;42.122;24.746;2023-07-13T06:16:16;99623.75;;;28.80;61.72
2675;BME280;1347;42.122;24.746;2023-07-13T06:18:44;99620.38;;;28.96;61.14
2675;BME280;1347;42.122;24.746;2023-07-13T06:21:13;99618.53;;;29.13;60.12
2675;BME280;1347;42.122;24.746;2023-07-13T06:23:41;99613.03;;;29.24;59.86
2675;BME280;1347;42.122;24.746;2023-07-13T06:26:08;99612.59;;;29.32;58.38
2675;BME280;1347;42.122;24.746;2023-07-13T06:28:37;99612.09;;;29.33;58.60
2675;BME280;1347;42.122;24.746;2023-07-13T06:31:05;99618.19;;;29.46;57.35
2675;BME280;1347;42.122;24.746;2023-07-13T06:33:33;99612.88;;;29.34;57.03
2675;BME280;1347;42.122;24.746;2023-07-13T06:36:01;99603.47;;;29.62;55.91
2675;BME280;1347;42.122;24.746;2023-07-13T06:38:28;99610.13;;;29.85;55.80
2675;BME280;1347;42.122;24.746;2023-07-13T06:40:55;99603.63;;;30.05;54.94
2675;BME280;1347;42.122;24.746;2023-07-13T06:43:22;99611.81;;;30.29;54.89
2675;BME280;1347;42.122;24.746;2023-07-13T06:45:53;99606.81;;;30.50;53.98
2675;BME280;1347;42.122;24.746;2023-07-13T06:48:20;99607.75;;;30.72;55.08
2675;BME280;1347;42.122;24.746;2023-07-13T06:50:48;99601.69;;;30.96;54.01
2675;BME280;1347;42.122;24.746;2023-07-13T06:53:17;99608.75;;;31.18;52.12
2675;BME280;1347;42.122;24.746;2023-07-13T06:55:44;99603.16;;;31.40;51.60
2675;BME280;1347;42.122;24.746;2023-07-13T06:58:12;99604.50;;;31.61;50.57
2675;BME280;1347;42.122;24.746;2023-07-13T07:00:39;99601.47;;;31.87;50.19
2675;BME280;1347;42.122;24.746;2023-07-13T07:03:08;99602.81;;;32.20;50.68
2675;BME280;1347;42.122;24.746;2023-07-13T07:05:35;99608.19;;;32.51;49.32
2675;BME280;1347;42.122;24.746;2023-07-13T07:08:02;99610.75;;;32.66;47.52
2675;BME280;1347;42.122;24.746;2023-07-13T07:10:30;99608.41;;;32.70;46.90
2675;BME280;1347;42.122;24.746;2023-07-13T07:12:57;99613.22;;;33.03;47.23
2675;BME280;1347;42.122;24.746;2023-07-13T07:15:24;99614.72;;;33.26;46.86
2675;BME280;1347;42.122;24.746;2023-07-13T07:17:52;99611.00;;;33.42;46.75
2675;BME280;1347;42.122;24.746;2023-07-13T07:20:20;99598.69;;;33.70;45.71
2675;BME280;1347;42.122;24.746;2023-07-13T07:22:47;99602.38;;;33.59;46.39
2675;BME280;1347;42.122;24.746;2023-07-13T07:25:15;99608.94;;;33.89;44.95
2675;BME280;1347;42.122;24.746;2023-07-13T07:27:41;99612.94;;;34.05;44.17
2675;BME280;1347;42.122;24.746;2023-07-13T07:30:09;99599.44;;;34.11;45.16
2675;BME280;1347;42.122;24.746;2023-07-13T07:32:37;99597.03;;;34.21;44.36
2675;BME280;1347;42.122;24.746;2023-07-13T07:35:05;99598.16;;;34.42;44.30
2675;BME280;1347;42.122;24.746;2023-07-13T07:37:33;99605.56;;;34.81;43.16
2675;BME280;1347;42.122;24.746;2023-07-13T07:40:00;99608.91;;;34.55;43.53
2675;BME280;1347;42.122;24.746;2023-07-13T07:42:27;99593.84;;;34.84;43.29
2675;BME280;1347;42.122;24.746;2023-07-13T07:44:54;99587.88;;;35.06;41.50
2675;BME280;1347;42.122;24.746;2023-07-13T07:47:21;99593.09;;;35.46;41.45
2675;BME280;1347;42.122;24.746;2023-07-13T07:49:49;99598.31;;;35.79;41.72
2675;BME280;1347;42.122;24.746;2023-07-13T07:52:16;99601.91;;;35.98;41.16
2675;BME280;1347;42.122;24.746;2023-07-13T07:54:44;99598.19;;;36.35;41.04
2675;BME280;1347;42.122;24.746;2023-07-13T07:57:11;99600.53;;;36.63;40.13
2675;BME280;1347;42.122;24.746;2023-07-13T07:59:38;99607.03;;;36.77;39.89
2675;BME280;1347;42.122;24.746;2023-07-13T08:02:06;99601.88;;;37.02;39.53
2675;BME280;1347;42.122;24.746;2023-07-13T08:04:33;99599.22;;;37.17;39.14
2675;BME280;1347;42.122;24.746;2023-07-13T08:07:00;99598.56;;;37.24;38.06
2675;BME280;1347;42.122;24.746;2023-07-13T08:09:28;99594.06;;;37.02;37.80
2675;BME280;1347;42.122;24.746;2023-07-13T08:11:57;99596.56;;;37.06;37.64
2675;BME280;1347;42.122;24.746;2023-07-13T08:14:23;99588.16;;;37.47;37.32
2675;BME280;1347;42.122;24.746;2023-07-13T08:16:50;99588.38;;;37.63;37.13
2675;BME280;1347;42.122;24.746;2023-07-13T08:19:17;99583.91;;;37.75;37.11
2675;BME280;1347;42.122;24.746;2023-07-13T08:21:44;99581.19;;;37.90;36.22
2675;BME280;1347;42.122;24.746;2023-07-13T08:24:13;99583.53;;;38.61;36.16
2675;BME280;1347;42.122;24.746;2023-07-13T08:26:40;99581.16;;;39.09;35.45
2675;BME280;1347;42.122;24.746;2023-07-13T08:29:08;99583.22;;;39.45;35.14
2675;BME280;1347;42.122;24.746;2023-07-13T08:31:35;99585.19;;;39.57;34.59
2675;BME280;1347;42.122;24.746;2023-07-13T08:34:02;99582.03;;;40.06;35.09
2675;BME280;1347;42.122;24.746;2023-07-13T08:36:29;99579.66;;;39.67;33.51
2675;BME280;1347;42.122;24.746;2023-07-13T08:38:56;99584.72;;;40.42;34.06
2675;BME280;1347;42.122;24.746;2023-07-13T08:41:23;99578.97;;;40.58;33.27
2675;BME280;1347;42.122;24.746;2023-07-13T08:43:51;99575.31;;;40.57;32.68
2675;BME280;1347;42.122;24.746;2023-07-13T08:46:25;99571.06;;;40.89;32.96
2675;BME280;1347;42.122;24.746;2023-07-13T08:48:56;99567.03;;;41.39;32.81
2675;BME280;1347;42.122;24.746;2023-07-13T08:51:43;99560.47;;;41.46;32.67
2675;BME280;1347;42.122;24.746;2023-07-13T08:54:22;99564.41;;;41.91;32.30
2675;BME280;1347;42.122;24.746;2023-07-13T08:56:51;99565.63;;;42.13;31.47
2675;BME280;1347;42.122;24.746;2023-07-13T08:59:22;99556.41;;;42.32;31.30
2675;BME280;1347;42.122;24.746;2023-07-13T09:02:02;99557.81;;;42.65;31.33
2675;BME280;1347;42.122;24.746;2023-07-13T09:04:34;99560.75;;;42.82;30.85
2675;BME280;1347;42.122;24.746;2023-07-13T09:07:07;99565.31;;;43.20;30.23
2675;BME280;1347;42.122;24.746;2023-07-13T09:09:48;99563.78;;;43.02;30.28
2675;BME280;1347;42.122;24.746;2023-07-13T09:12:22;99554.53;;;43.47;29.75
2675;BME280;1347;42.122;24.746;2023-07-13T09:14:54;99546.72;;;43.57;29.98
2675;BME280;1347;42.122;24.746;2023-07-13T09:17:27;99544.03;;;43.96;29.69
2675;BME280;1347;42.122;24.746;2023-07-13T09:20:00;99542.41;;;44.22;29.21
2675;BME280;1347;42.122;24.746;2023-07-13T09:22:32;99540.00;;;44.28;29.09
2675;BME280;1347;42.122;24.746;2023-07-13T09:25:05;99537.63;;;44.44;29.44
2675;BME280;1347;42.122;24.746;2023-07-13T09:27:37;99540.06;;;44.47;28.98
2675;BME280;1347;42.122;24.746;2023-07-13T09:30:21;99532.16;;;44.48;28.42
2675;BME280;1347;42.122;24.746;2023-07-13T09:32:53;99531.09;;;44.72;28.31
2675;BME280;1347;42.122;24.746;2023-07-13T09:35:22;99520.44;;;44.46;28.86
2675;BME280;1347;42.122;24.746;2023-07-13T09:37:51;99505.97;;;44.65;28.31
2675;BME280;1347;42.122;24.746;2023-07-13T09:40:24;99508.41;;;45.17;27.54
2675;BME280;1347;42.122;24.746;2023-07-13T09:42:53;99507.78;;;45.28;27.45
2675;BME280;1347;42.122;24.746;2023-07-13T09:45:27;99503.47;;;45.38;26.59
2675;BME280;1347;42.122;24.746;2023-07-13T09:48:04;99492.31;;;45.54;26.38
2675;BME280;1347;42.122;24.746;2023-07-13T09:50:31;99490.06;;;45.74;26.58
2675;BME280;1347;42.122;24.746;2023-07-13T09:52:58;99485.72;;;45.94;25.50
2675;BME280;1347;42.122;24.746;2023-07-13T09:55:30;99486.81;;;46.41;26.00
2675;BME280;1347;42.122;24.746;2023-07-13T09:57:58;99485.28;;;46.19;26.18
2675;BME280;1347;42.122;24.746;2023-07-13T10:00:30;99476.69;;;45.69;25.98
2675;BME280;1347;42.122;24.746;2023-07-13T10:03:01;99476.09;;;45.70;25.84
2675;BME280;1347;42.122;24.746;2023-07-13T10:05:37;99466.75;;;46.03;25.98
2675;BME280;1347;42.122;24.746;2023-07-13T10:08:04;99467.81;;;46.07;26.49
2675;BME280;1347;42.122;24.746;2023-07-13T10:10:33;99468.75;;;46.31;26.24
2675;BME280;1347;42.122;24.746;2023-07-13T10:13:01;99460.69;;;46.63;25.55
2675;BME280;1347;42.122;24.746;2023-07-13T10:15:30;99455.72;;;46.32;25.00
2675;BME280;1347;42.122;24.746;2023-07-13T10:17:57;99455.56;;;45.88;25.74
2675;BME280;1347;42.122;24.746;2023-07-13T10:20:26;99453.19;;;46.27;26.05
2675;BME280;1347;42.122;24.746;2023-07-13T10:22:58;99453.63;;;46.66;25.24
2675;BME280;1347;42.122;24.746;2023-07-13T10:25:29;99449.31;;;46.34;25.03
2675;BME280;1347;42.122;24.746;2023-07-13T10:28:02;99451.44;;;46.33;25.27
2675;BME280;1347;42.122;24.746;2023-07-13T10:30:33;99446.91;;;46.30;24.81
2675;BME280;1347;42.122;24.746;2023-07-13T10:33:03;99456.84;;;46.27;24.24
2675;BME280;1347;42.122;24.746;2023-07-13T10:35:39;99437.94;;;46.80;24.32
2675;BME280;1347;42.122;24.746;2023-07-13T10:38:11;99444.84;;;47.20;23.91
2675;BME280;1347;42.122;24.746;2023-07-13T10:40:40;99436.41;;;47.36;23.72
2675;BME280;1347;42.122;24.746;2023-07-13T10:43:14;99432.84;;;47.25;25.02
2675;BME280;1347;42.122;24.746;2023-07-13T10:45:45;99426.81;;;47.21;25.26
2675;BME280;1347;42.122;24.746;2023-07-13T10:48:15;99421.50;;;47.30;25.80
2675;BME280;1347;42.122;24.746;2023-07-13T10:50:46;99418.09;;;47.21;23.22
2675;BME280;1347;42.122;24.746;2023-07-13T10:53:21;99421.63;;;47.32;23.64
2675;BME280;1347;42.122;24.746;2023-07-13T10:55:57;99422.16;;;47.63;23.17
2675;BME280;1347;42.122;24.746;2023-07-13T10:58:29;99422.91;;;47.75;22.75
2675;BME280;1347;42.122;24.746;2023-07-13T11:01:07;99419.50;;;47.44;22.85
2675;BME280;1347;42.122;24.746;2023-07-13T11:03:36;99408.13;;;46.68;23.55
2675;BME280;1347;42.122;24.746;2023-07-13T11:06:08;99400.91;;;46.36;23.88
2675;BME280;1347;42.122;24.746;2023-07-13T11:08:50;99400.97;;;46.81;24.08
2675;BME280;1347;42.122;24.746;2023-07-13T11:11:36;99399.53;;;47.27;23.36
2675;BME280;1347;42.122;24.746;2023-07-13T11:14:05;99392.91;;;46.91;23.32
2675;BME280;1347;42.122;24.746;2023-07-13T11:16:42;99397.88;;;47.12;23.26
2675;BME280;1347;42.122;24.746;2023-07-13T11:19:28;99401.16;;;47.30;23.05
2675;BME280;1347;42.122;24.746;2023-07-13T11:22:15;99402.81;;;47.33;22.93
2675;BME280;1347;42.122;24.746;2023-07-13T11:24:51;99393.00;;;47.38;23.32
2675;BME280;1347;42.122;24.746;2023-07-13T11:27:33;99389.91;;;47.71;22.96
2675;BME280;1347;42.122;24.746;2023-07-13T11:30:18;99391.94;;;47.68;23.03
2675;BME280;1347;42.122;24.746;2023-07-13T11:32:50;99387.66;;;47.46;22.64
2675;BME280;1347;42.122;24.746;2023-07-13T11:35:22;99390.69;;;47.24;22.78
2675;BME280;1347;42.122;24.746;2023-07-13T11:37:52;99369.00;;;47.37;22.80
2675;BME280;1347;42.122;24.746;2023-07-13T11:40:22;99369.75;;;47.49;23.46
2675;BME280;1347;42.122;24.746;2023-07-13T11:42:59;99379.44;;;47.77;22.76
2675;BME280;1347;42.122;24.746;2023-07-13T11:45:27;99376.31;;;47.73;22.61
2675;BME280;1347;42.122;24.746;2023-07-13T11:47:54;99371.34;;;47.64;22.34
2675;BME280;1347;42.122;24.746;2023-07-13T11:50:25;99379.44;;;47.66;22.38
2675;BME280;1347;42.122;24.746;2023-07-13T11:53:13;99377.56;;;47.82;22.00
2675;BME280;1347;42.122;24.746;2023-07-13T11:55:47;99373.50;;;47.05;22.43
2675;BME280;1347;42.122;24.746;2023-07-13T11:58:18;99369.63;;;47.12;22.86
2675;BME280;1347;42.122;24.746;2023-07-13T12:00:46;99361.41;;;47.09;22.56
2675;BME280;1347;42.122;24.746;2023-07-13T12:03:18;99361.00;;;47.14;22.90
2675;BME280;1347;42.122;24.746;2023-07-13T12:05:57;99360.88;;;47.24;22.46
2675;BME280;1347;42.122;24.746;2023-07-13T12:08:27;99345.59;;;47.35;22.27
2675;BME280;1347;42.122;24.746;2023-07-13T12:10:59;99347.03;;;47.94;21.65
2675;BME280;1347;42.122;24.746;2023-07-13T12:13:27;99339.94;;;48.09;22.02
2675;BME280;1347;42.122;24.746;2023-07-13T12:15:56;99339.94;;;48.60;20.69
2675;BME280;1347;42.122;24.746;2023-07-13T12:18:29;99335.19;;;48.53;20.54
2675;BME280;1347;42.122;24.746;2023-07-13T12:20:58;99335.44;;;48.71;20.74
2675;BME280;1347;42.122;24.746;2023-07-13T12:23:29;99335.53;;;49.12;20.82
2675;BME280;1347;42.122;24.746;2023-07-13T12:26:01;99326.19;;;49.41;20.07
2675;BME280;1347;42.122;24.746;2023-07-13T12:28:33;99323.75;;;49.78;20.48
2675;BME280;1347;42.122;24.746;2023-07-13T12:31:02;99322.50;;;50.40;19.48
2675;BME280;1347;42.122;24.746;2023-07-13T12:33:30;99326.06;;;51.15;19.53
2675;BME280;1347;42.122;24.746;2023-07-13T12:36:00;99309.84;;;51.77;19.84
2675;BME280;1347;42.122;24.746;2023-07-13T12:38:30;99309.63;;;52.06;19.67
2675;BME280;1347;42.122;24.746;2023-07-13T12:40:57;99314.28;;;52.67;19.74
2675;BME280;1347;42.122;24.746;2023-07-13T12:43:25;99317.72;;;53.18;19.99
2675;BME280;1347;42.122;24.746;2023-07-13T12:45:58;99304.41;;;53.15;19.73
2675;BME280;1347;42.122;24.746;2023-07-13T12:48:26;99299.44;;;52.80;20.02
2675;BME280;1347;42.122;24.746;2023-07-13T12:50:55;99296.63;;;53.02;20.49
2675;BME280;1347;42.122;24.746;2023-07-13T12:53:28;99299.19;;;52.74;20.00
2675;BME280;1347;42.122;24.746;2023-07-13T12:55:59;99302.88;;;52.19;20.74
2675;BME280;1347;42.122;24.746;2023-07-13T12:58:36;99290.31;;;51.48;20.86
2675;BME280;1347;42.122;24.746;2023-07-13T13:01:05;99288.06;;;51.98;20.79
2675;BME280;1347;42.122;24.746;2023-07-13T13:03:33;99288.19;;;51.84;21.35
2675;BME280;1347;42.122;24.746;2023-07-13T13:06:03;99276.03;;;51.23;20.69
2675;BME280;1347;42.122;24.746;2023-07-13T13:08:31;99287.31;;;50.52;21.10
2675;BME280;1347;42.122;24.746;2023-07-13T13:11:00;99280.44;;;49.57;21.49
2675;BME280;1347;42.122;24.746;2023-07-13T13:13:27;99274.16;;;48.41;21.71
2675;BME280;1347;42.122;24.746;2023-07-13T13:15:54;99271.16;;;48.14;22.48
2675;BME280;1347;42.122;24.746;2023-07-13T13:18:23;99276.00;;;47.60;22.68
2675;BME280;1347;42.122;24.746;2023-07-13T13:20:51;99269.75;;;46.82;22.95